Gracewood, Georgia
Current Conditions -  °F | °C
As of 1:10 PM on Saturday 20 Dec 2014 (Local Time) from KAGS Reporting Station
Haze Haze  
Wind Chill: 54°   Ceiling: 1000
Heat Index: 54°   Visibility: 6mi
Dew Point: 50°   Wind: 0mph
Humidity: 86%   Direction: NA
Pressure: 30.17"   Gusts: NA
Location:  33.37°N, 82.03°W
Report Text: KAGS 201810Z 00000KT 6SM BR OVC010 12/10 A3017 RMK AO2 T01220100
Loading
Personal Weather Stations






























Interactive Weather Map New forecast layout! Learn more

10-Day Weather Forecast

Advertisements
Track Severe Weather on mobile